Skip Navigation LinksHome page > Weather > Current weather Skip Navigation Links

Current Weather

Chicago O'Hare Intl, Chicago

For information only: do not use for flight planning or navigation.
Latest weather
Observation time Tuesday, September 16, 2014 5:51 AM CDT
Local time Tuesday, September 16, 2014 6:23 AM CDT
Flight conditions Visual Meteorological Conditions
Winds
Wind direction North-Northwest (330°)
Wind speed 3 mph
Visibility 10 mi.
Sky condition
Ceiling unlimited
Cloud layer few clouds 2,500 ft.
Temperature 46°F
Dewpoint 43°F
Altimeter 30.19 in.Hg
Derived measurements
Relative humidity 89%
Wind chill 45°F
Density altitude -369 ft.
Sea-level pressure 30.20 in.Hg
Remarks
Automated weather observing station with precipitation discriminator.
METAR KORD 161051Z 33003KT 10SM FEW025 08/06 A3019 RMK AO2 SLP226 T00780061

Settings

Location code

InnerDrive.Weather 4.0.5372.0 Release CLR 4.0.30319.34014
Copyright ©2014 Inner Drive Technology. All rights reserved. Portions Copyright ©1986-2014 David Braverman.

Find weather

Site navigation


Skip Navigation Links

Place info

Page info

PayPal - The safer, easier way to pay online!

Return home.

Copyright ©2014 Inner Drive Technology. Purveyors of fine, hand-crafted computer software. Page printed 2014-09-16T11:23:08 UTC.